createdAt,value
2023-04-15T00:02:02.820Z,7.92
2023-04-15T00:04:31.733Z,7.88
2023-04-15T00:06:59.348Z,7.92
2023-04-15T00:09:28.179Z,7.84
2023-04-15T00:11:55.713Z,7.81
2023-04-15T00:14:23.206Z,7.82
2023-04-15T00:16:56.011Z,7.81
2023-04-15T00:19:24.067Z,7.80
2023-04-15T00:21:51.960Z,7.84
2023-04-15T00:24:19.504Z,7.85
2023-04-15T00:26:49.064Z,7.88
2023-04-15T00:29:16.585Z,7.84
2023-04-15T00:31:44.628Z,7.88
2023-04-15T00:34:12.981Z,7.84
2023-04-15T00:36:40.542Z,7.82
2023-04-15T00:39:08.224Z,7.79
2023-04-15T00:41:39.032Z,7.82
2023-04-15T00:44:08.469Z,7.77
2023-04-15T00:46:38.226Z,7.84
2023-04-15T00:49:07.046Z,7.81
2023-04-15T00:51:36.727Z,7.83
2023-04-15T00:54:04.505Z,7.83
2023-04-15T00:56:32.390Z,7.83
2023-04-15T00:59:00.953Z,7.84
2023-04-15T01:01:30.868Z,7.84
2023-04-15T01:03:59.098Z,7.90
2023-04-15T01:06:29.148Z,7.85
2023-04-15T01:08:57.248Z,7.91
2023-04-15T01:11:25.659Z,7.91
2023-04-15T01:13:53.800Z,7.86
2023-04-15T01:16:21.806Z,7.90
2023-04-15T01:18:52.127Z,7.83
2023-04-15T01:21:20.694Z,7.88
2023-04-15T01:24:02.858Z,7.84
2023-04-15T01:26:31.905Z,7.76
2023-04-15T01:28:59.630Z,7.79
2023-04-15T01:31:27.525Z,7.84
2023-04-15T01:33:55.619Z,7.83
2023-04-15T01:36:23.197Z,7.83
2023-04-15T01:38:54.264Z,7.84
2023-04-15T01:41:25.986Z,7.82
2023-04-15T01:43:55.073Z,7.81
2023-04-15T01:46:22.719Z,7.88
2023-04-15T01:48:50.860Z,7.85
2023-04-15T01:51:18.506Z,7.82
2023-04-15T01:53:46.394Z,7.86
2023-04-15T01:56:16.479Z,7.90
2023-04-15T01:58:44.705Z,7.90
2023-04-15T02:01:13.609Z,7.88
2023-04-15T02:03:41.253Z,7.88
2023-04-15T02:06:09.185Z,7.96
2023-04-15T02:08:36.714Z,7.94
2023-04-15T02:11:05.237Z,7.91
2023-04-15T02:13:33.193Z,7.93
2023-04-15T02:16:01.001Z,7.99
2023-04-15T02:18:29.922Z,7.90
2023-04-15T02:20:58.589Z,7.90
2023-04-15T02:23:26.503Z,7.90
2023-04-15T02:25:54.424Z,7.87
2023-04-15T02:28:22.119Z,7.88
2023-04-15T02:30:50.815Z,7.91
2023-04-15T02:33:18.442Z,7.91
2023-04-15T02:35:47.326Z,7.86
2023-04-15T02:38:16.737Z,7.91
2023-04-15T02:40:44.370Z,7.85
2023-04-15T02:43:12.142Z,7.85
2023-04-15T02:45:39.749Z,7.89
2023-04-15T02:48:07.388Z,7.88
2023-04-15T02:50:35.033Z,7.79
2023-04-15T02:53:04.848Z,7.86
2023-04-15T02:55:32.469Z,7.83
2023-04-15T02:58:01.050Z,7.89
2023-04-15T03:00:28.654Z,7.86
2023-04-15T03:03:00.074Z,7.85
2023-04-15T03:05:28.217Z,7.87
2023-04-15T03:07:55.882Z,7.86
2023-04-15T03:10:24.802Z,7.88
2023-04-15T03:12:52.509Z,7.92
2023-04-15T03:15:23.109Z,7.90
2023-04-15T03:17:53.188Z,7.95
2023-04-15T03:20:21.013Z,7.94
2023-04-15T03:22:49.574Z,8.02
2023-04-15T03:25:17.397Z,8.03
2023-04-15T03:27:46.585Z,8.04
2023-04-15T03:30:14.859Z,8.00
2023-04-15T03:32:42.559Z,8.00
2023-04-15T03:35:10.561Z,8.01
2023-04-15T03:37:38.252Z,8.03
2023-04-15T03:40:07.112Z,7.97
2023-04-15T03:42:34.757Z,7.99
2023-04-15T03:45:04.120Z,7.96
2023-04-15T03:47:32.031Z,8.01
2023-04-15T03:49:59.570Z,7.98
2023-04-15T03:52:27.132Z,7.98
2023-04-15T03:54:54.649Z,7.99
2023-04-15T03:57:22.174Z,7.96
2023-04-15T03:59:49.709Z,8.03
2023-04-15T04:02:18.664Z,8.03
2023-04-15T04:04:46.387Z,8.05
2023-04-15T04:07:16.708Z,8.04
2023-04-15T04:09:45.662Z,8.13
2023-04-15T04:12:14.413Z,8.11
2023-04-15T04:14:41.968Z,8.11
2023-04-15T04:17:09.922Z,8.09
2023-04-15T04:19:38.824Z,8.16
2023-04-15T04:22:06.406Z,8.22
2023-04-15T04:24:33.962Z,8.14
2023-04-15T04:27:02.082Z,8.17
2023-04-15T04:29:29.612Z,8.17
2023-04-15T04:31:57.230Z,8.11
2023-04-15T04:34:24.911Z,8.08
2023-04-15T04:36:53.764Z,8.12
2023-04-15T04:39:21.243Z,8.11
2023-04-15T04:41:48.778Z,8.11
2023-04-15T04:44:16.300Z,8.11
2023-04-15T04:46:43.839Z,8.12
2023-04-15T04:49:11.406Z,8.11
2023-04-15T04:51:39.471Z,8.12
2023-04-15T04:54:08.611Z,8.18
2023-04-15T04:56:36.293Z,8.14
2023-04-15T04:59:03.830Z,8.10
2023-04-15T05:01:31.426Z,8.14
2023-04-15T05:03:59.123Z,8.18
2023-04-15T05:06:27.620Z,8.16
2023-04-15T05:08:55.127Z,8.20
2023-04-15T05:11:24.043Z,8.14
2023-04-15T05:13:51.577Z,8.13
2023-04-15T05:16:19.878Z,8.13
2023-04-15T05:18:47.490Z,8.23
2023-04-15T05:21:15.069Z,8.13
2023-04-15T05:23:42.639Z,8.27
2023-04-15T05:26:10.224Z,8.27
2023-04-15T05:28:39.135Z,8.28
2023-04-15T05:31:07.285Z,8.27
2023-04-15T05:33:34.985Z,8.29
2023-04-15T05:36:02.569Z,8.31
2023-04-15T05:38:30.070Z,8.38
2023-04-15T05:40:57.682Z,8.38
2023-04-15T05:43:25.386Z,8.40
2023-04-15T05:45:54.341Z,8.37
2023-04-15T05:48:21.876Z,8.41
2023-04-15T05:50:49.449Z,8.39
2023-04-15T05:53:17.157Z,8.37
2023-04-15T05:55:44.759Z,8.41
2023-04-15T05:58:12.465Z,8.37
2023-04-15T06:00:40.376Z,8.36
2023-04-15T06:03:09.354Z,8.43
2023-04-15T06:05:36.993Z,8.45
2023-04-15T06:08:04.536Z,8.44
2023-04-15T06:10:36.282Z,8.43
2023-04-15T06:13:04.134Z,8.39
2023-04-15T06:15:31.823Z,8.47
2023-04-15T06:17:59.434Z,8.49
2023-04-15T06:20:28.621Z,8.47
2023-04-15T06:22:56.300Z,8.47
2023-04-15T06:25:24.038Z,8.48
2023-04-15T06:27:51.601Z,8.48
2023-04-15T06:30:19.253Z,8.51
2023-04-15T06:32:47.218Z,8.58
2023-04-15T06:35:15.323Z,8.52
2023-04-15T06:37:44.217Z,8.53
2023-04-15T06:40:12.384Z,8.54
2023-04-15T06:42:39.936Z,8.58
2023-04-15T06:45:08.728Z,8.64
2023-04-15T06:47:36.311Z,8.63
2023-04-15T06:50:03.985Z,8.68
2023-04-15T06:52:31.600Z,8.73
2023-04-15T06:55:00.880Z,8.76
2023-04-15T06:57:28.680Z,8.78
2023-04-15T06:59:56.225Z,8.79
2023-04-15T07:02:24.195Z,8.74
2023-04-15T07:04:51.821Z,8.71
2023-04-15T07:07:19.580Z,8.69
2023-04-15T07:09:47.211Z,8.73
2023-04-15T07:12:16.173Z,8.72
2023-04-15T07:14:43.707Z,8.78
2023-04-15T07:17:11.419Z,8.76
2023-04-15T07:19:39.037Z,8.84
2023-04-15T07:22:06.621Z,8.77
2023-04-15T07:24:34.125Z,8.86
2023-04-15T07:27:01.991Z,8.81
2023-04-15T07:29:31.404Z,8.88
2023-04-15T07:31:58.983Z,8.87
2023-04-15T07:34:26.528Z,8.82
2023-04-15T07:36:54.109Z,8.86
2023-04-15T07:39:22.244Z,8.84
2023-04-15T07:41:49.968Z,8.87
2023-04-15T07:44:17.495Z,8.90
2023-04-15T07:46:46.520Z,8.90
2023-04-15T07:49:14.376Z,8.93
2023-04-15T07:51:41.953Z,8.96
2023-04-15T07:54:09.964Z,8.96
2023-04-15T07:56:37.677Z,8.97
2023-04-15T07:59:06.466Z,9.04
2023-04-15T08:01:34.185Z,9.08
2023-04-15T08:04:03.917Z,9.15
2023-04-15T08:06:32.917Z,9.18
2023-04-15T08:09:00.828Z,9.16
2023-04-15T08:11:28.764Z,9.18
2023-04-15T08:13:56.455Z,9.25
2023-04-15T08:16:25.974Z,9.21
2023-04-15T08:18:54.974Z,9.18
2023-04-15T08:21:23.968Z,9.22
2023-04-15T08:23:53.431Z,9.27
2023-04-15T08:26:22.080Z,9.27
2023-04-15T08:28:50.419Z,9.28
2023-04-15T08:31:19.542Z,9.23
2023-04-15T08:33:47.390Z,9.28
2023-04-15T08:36:14.990Z,9.27
2023-04-15T08:38:45.523Z,9.31
2023-04-15T08:41:21.720Z,9.37
2023-04-15T08:43:53.959Z,9.42
2023-04-15T08:46:22.706Z,9.38
2023-04-15T08:48:50.938Z,9.42
2023-04-15T08:51:18.989Z,9.47
2023-04-15T08:53:48.048Z,9.45
2023-04-15T08:56:17.363Z,9.41
2023-04-15T08:58:45.617Z,9.48
2023-04-15T09:01:13.811Z,9.62
2023-04-15T09:03:41.746Z,9.62
2023-04-15T09:06:09.750Z,9.68
2023-04-15T09:08:37.345Z,9.68
2023-04-15T09:11:06.466Z,9.78
2023-04-15T09:13:34.310Z,9.90
2023-04-15T09:16:03.921Z,9.94
2023-04-15T09:18:33.305Z,9.87
2023-04-15T09:21:06.562Z,10.01
2023-04-15T09:23:34.350Z,10.11
2023-04-15T09:26:02.299Z,10.18
2023-04-15T09:28:31.522Z,10.25
2023-04-15T09:30:59.463Z,10.28
2023-04-15T09:33:28.038Z,10.45
2023-04-15T09:36:01.811Z,10.58
2023-04-15T09:38:29.464Z,10.72
2023-04-15T09:40:57.142Z,10.76
2023-04-15T09:43:38.019Z,10.79
2023-04-15T09:46:06.958Z,10.82
2023-04-15T09:48:34.594Z,10.81
2023-04-15T09:51:02.945Z,10.91
2023-04-15T09:53:31.915Z,10.88
2023-04-15T09:56:02.275Z,10.96
2023-04-15T09:58:31.331Z,11.13
2023-04-15T10:01:00.531Z,11.15
2023-04-15T10:03:31.139Z,11.23
2023-04-15T10:06:01.034Z,11.32
2023-04-15T10:08:30.059Z,11.52
2023-04-15T10:10:57.997Z,11.65
2023-04-15T10:13:26.903Z,11.67
2023-04-15T10:15:59.116Z,11.67
2023-04-15T10:18:27.881Z,11.83
2023-04-15T10:20:58.039Z,12.28
2023-04-15T10:23:25.742Z,12.59
2023-04-15T10:25:54.980Z,12.90
2023-04-15T10:28:23.515Z,13.14
2023-04-15T10:30:52.039Z,13.25
2023-04-15T10:33:22.511Z,13.51
2023-04-15T10:35:51.917Z,13.69
2023-04-15T10:38:39.867Z,13.76
2023-04-15T10:41:20.230Z,13.77
2023-04-15T10:43:53.385Z,13.80
2023-04-15T10:46:24.004Z,14.13
2023-04-15T10:48:52.982Z,14.43
2023-04-15T10:51:29.407Z,14.19
2023-04-15T10:54:01.741Z,13.88
2023-04-15T10:56:31.150Z,13.98
2023-04-15T10:59:00.940Z,13.64
2023-04-15T11:01:54.130Z,14.04
2023-04-15T11:04:57.433Z,14.17
2023-04-15T11:07:35.504Z,14.15
2023-04-15T11:10:04.921Z,14.24
2023-04-15T11:12:36.645Z,14.26
2023-04-15T11:15:30.159Z,14.08
2023-04-15T11:17:58.085Z,14.08
2023-04-15T11:20:26.069Z,13.89
2023-04-15T11:23:14.141Z,13.90
2023-04-15T11:25:44.726Z,13.94
2023-04-15T11:28:13.169Z,13.90
2023-04-15T11:30:42.977Z,13.74
2023-04-15T11:33:13.793Z,13.59
2023-04-15T11:35:42.635Z,13.68
2023-04-15T11:38:12.850Z,13.65
2023-04-15T11:40:41.753Z,13.84
2023-04-15T11:43:12.433Z,13.86
2023-04-15T11:45:50.096Z,13.78
2023-04-15T11:48:18.380Z,13.78
2023-04-15T11:50:46.405Z,13.81
2023-04-15T11:53:15.108Z,13.77
2023-04-15T11:55:44.981Z,13.76
2023-04-15T11:58:16.449Z,13.81
2023-04-15T12:00:48.786Z,13.64
2023-04-15T12:03:20.098Z,13.63
2023-04-15T12:06:08.244Z,13.50
2023-04-15T12:08:59.299Z,13.43
2023-04-15T12:11:32.796Z,13.55
2023-04-15T12:14:07.783Z,13.19
2023-04-15T12:16:48.990Z,13.20
2023-04-15T12:19:19.792Z,13.28
2023-04-15T12:21:49.073Z,13.38
2023-04-15T12:24:16.632Z,13.50
2023-04-15T12:26:46.164Z,13.60
2023-04-15T12:29:17.342Z,13.56
2023-04-15T12:31:50.479Z,13.50
2023-04-15T12:34:18.587Z,13.65
2023-04-15T12:36:46.123Z,13.68
2023-04-15T12:39:14.095Z,13.69
2023-04-15T12:41:41.809Z,13.63
2023-04-15T12:44:09.480Z,13.72
2023-04-15T12:46:38.684Z,13.62
2023-04-15T12:49:06.264Z,13.73
2023-04-15T12:51:33.782Z,13.85
2023-04-15T12:54:01.495Z,13.83
2023-04-15T12:56:29.249Z,13.90
2023-04-15T12:58:57.469Z,13.91
2023-04-15T13:01:25.042Z,13.80
2023-04-15T13:03:54.150Z,13.86
2023-04-15T13:06:21.797Z,13.89
2023-04-15T13:08:57.933Z,13.93
2023-04-15T13:11:26.261Z,14.09
2023-04-15T13:13:53.854Z,14.00
2023-04-15T13:16:21.861Z,14.11
2023-04-15T13:18:49.501Z,14.29
2023-04-15T13:21:19.384Z,14.26
2023-04-15T13:23:47.114Z,14.34
2023-04-15T13:26:14.656Z,14.29
2023-04-15T13:28:42.171Z,14.29
2023-04-15T13:31:09.900Z,14.51
2023-04-15T13:33:37.556Z,14.69
2023-04-15T13:36:05.278Z,14.39
2023-04-15T13:38:34.160Z,14.59
2023-04-15T13:41:01.732Z,14.57
2023-04-15T13:43:29.553Z,14.48
2023-04-15T13:45:57.117Z,14.36
2023-04-15T13:48:24.841Z,14.24
2023-04-15T13:50:52.415Z,14.12
2023-04-15T13:53:19.911Z,14.09
2023-04-15T13:55:48.768Z,14.00
2023-04-15T13:58:17.069Z,14.13
2023-04-15T14:00:44.622Z,14.01
2023-04-15T14:03:12.384Z,13.99
2023-04-15T14:05:40.210Z,13.93
2023-04-15T14:08:07.816Z,13.97
2023-04-15T14:10:36.157Z,13.94
2023-04-15T14:13:05.162Z,14.01
2023-04-15T14:15:32.753Z,13.97
2023-04-15T14:18:00.394Z,14.05
2023-04-15T14:20:27.932Z,14.07
2023-04-15T14:22:55.512Z,14.12
2023-04-15T14:25:32.738Z,14.05
2023-04-15T14:28:01.471Z,14.14
2023-04-15T14:30:30.726Z,14.17
2023-04-15T14:32:58.381Z,14.20
2023-04-15T14:35:26.817Z,14.13
2023-04-15T14:37:54.547Z,14.04
2023-04-15T14:40:22.303Z,14.12
2023-04-15T14:42:49.970Z,14.17
2023-04-15T14:45:17.727Z,14.08
2023-04-15T14:47:46.767Z,14.01
2023-04-15T14:50:14.934Z,13.91
2023-04-15T14:52:42.520Z,13.95
2023-04-15T14:55:11.577Z,14.11
2023-04-15T14:57:39.717Z,14.13
2023-04-15T15:00:08.649Z,14.08
2023-04-15T15:02:39.652Z,14.14
2023-04-15T15:05:11.470Z,14.21
2023-04-15T15:07:40.658Z,14.25
2023-04-15T15:10:09.290Z,14.28
2023-04-15T15:12:36.894Z,14.20
2023-04-15T15:15:15.779Z,14.00
2023-04-15T15:17:52.874Z,13.82
2023-04-15T15:20:21.890Z,13.84
2023-04-15T15:22:49.625Z,13.90
2023-04-15T15:25:17.317Z,13.95
2023-04-15T15:27:45.140Z,13.90
2023-04-15T15:30:13.791Z,13.85
2023-04-15T15:32:42.585Z,13.75
2023-04-15T15:35:11.288Z,13.47
2023-04-15T15:37:40.216Z,13.49
2023-04-15T15:40:09.174Z,13.48
2023-04-15T15:42:36.786Z,13.46
2023-04-15T15:45:04.760Z,13.36
2023-04-15T15:47:32.342Z,13.36
2023-04-15T15:50:00.957Z,13.27
2023-04-15T15:52:28.810Z,13.25
2023-04-15T15:54:57.657Z,13.08
2023-04-15T15:57:25.245Z,12.96
2023-04-15T16:00:04.748Z,12.98
2023-04-15T16:03:04.303Z,12.88
2023-04-15T16:05:25.769Z,12.81
2023-04-15T16:07:53.449Z,12.76
2023-04-15T16:10:22.415Z,12.75
2023-04-15T16:12:50.766Z,12.70
2023-04-15T16:15:18.377Z,12.61
2023-04-15T16:17:45.959Z,12.73
2023-04-15T16:20:13.633Z,12.52
2023-04-15T16:22:41.271Z,12.58
2023-04-15T16:25:09.532Z,12.63
2023-04-15T16:30:11.061Z,12.75
2023-04-15T16:32:38.894Z,12.78
2023-04-15T16:35:07.452Z,12.62
2023-04-15T16:37:36.066Z,12.28
2023-04-15T16:40:04.157Z,12.26
2023-04-15T16:42:32.129Z,12.22
2023-04-15T16:45:01.174Z,12.20
2023-04-15T16:47:28.956Z,12.22
2023-04-15T16:49:56.503Z,12.29
2023-04-15T16:52:24.139Z,12.22
2023-04-15T16:54:51.907Z,12.24
2023-04-15T16:57:19.613Z,12.19
2023-04-15T16:59:47.208Z,12.18
2023-04-15T17:02:16.305Z,12.07
2023-04-15T17:04:44.122Z,12.03
2023-04-15T17:07:11.834Z,12.01
2023-04-15T17:09:40.106Z,12.07
2023-04-15T17:12:07.991Z,11.99
2023-04-15T17:14:35.558Z,11.97
2023-04-15T17:17:03.137Z,11.95
2023-04-15T17:19:31.959Z,11.88
2023-04-15T17:22:00.990Z,11.87
2023-04-15T17:24:28.827Z,11.88
2023-04-15T17:26:56.828Z,11.85
2023-04-15T17:29:25.010Z,11.78
2023-04-15T17:31:52.586Z,11.67
2023-04-15T17:34:20.413Z,11.64
2023-04-15T17:36:51.214Z,11.58
2023-04-15T17:39:18.722Z,11.64
2023-04-15T17:41:46.364Z,11.68
2023-04-15T17:44:13.906Z,11.59
2023-04-15T17:46:41.471Z,11.51
2023-04-15T17:49:09.132Z,11.44
2023-04-15T17:51:36.658Z,11.50
2023-04-15T17:54:11.478Z,11.56
2023-04-15T17:56:39.086Z,11.47
2023-04-15T17:59:08.735Z,11.31
2023-04-15T18:01:36.395Z,11.37
2023-04-15T18:04:04.265Z,11.25
2023-04-15T18:06:32.285Z,11.15
2023-04-15T18:08:59.800Z,11.09
2023-04-15T18:11:28.672Z,11.15
2023-04-15T18:13:56.220Z,11.09
2023-04-15T18:16:23.881Z,11.00
2023-04-15T18:18:52.126Z,10.91
2023-04-15T18:21:19.652Z,10.79
2023-04-15T18:23:47.155Z,10.76
2023-04-15T18:26:14.713Z,10.74
2023-04-15T18:28:43.579Z,10.73
2023-04-15T18:31:11.292Z,10.71
2023-04-15T18:33:40.284Z,10.64
2023-04-15T18:36:07.851Z,10.65
2023-04-15T18:38:35.474Z,10.63
2023-04-15T18:41:03.006Z,10.56
2023-04-15T18:43:30.556Z,10.54
2023-04-15T18:45:59.640Z,10.54
2023-04-15T18:48:27.326Z,10.50
2023-04-15T18:50:54.909Z,10.59
2023-04-15T18:53:22.525Z,10.48
2023-04-15T18:55:50.093Z,10.37
2023-04-15T18:58:17.637Z,10.34
2023-04-15T19:00:45.276Z,10.20
2023-04-15T19:03:14.629Z,10.18
2023-04-15T19:05:42.324Z,10.19
2023-04-15T19:08:09.895Z,10.20
2023-04-15T19:10:37.588Z,10.17
2023-04-15T19:13:05.650Z,10.03
2023-04-15T19:15:33.220Z,9.96
2023-04-15T19:18:00.976Z,9.99
2023-04-15T19:20:29.908Z,10.04
2023-04-15T19:22:57.586Z,9.90
2023-04-15T19:25:25.273Z,9.83
2023-04-15T19:27:52.828Z,9.76
2023-04-15T19:30:21.203Z,9.82
2023-04-15T19:32:48.833Z,9.93
2023-04-15T19:35:16.628Z,9.89
2023-04-15T19:37:45.506Z,9.87
2023-04-15T19:40:13.624Z,9.83
2023-04-15T19:42:41.305Z,9.80
2023-04-15T19:45:09.594Z,9.95
2023-04-15T19:47:37.553Z,9.88
2023-04-15T19:50:07.201Z,9.96
2023-04-15T19:52:34.976Z,9.98
2023-04-15T19:55:04.290Z,9.90
2023-04-15T19:57:31.846Z,9.89
2023-04-15T19:59:59.346Z,9.87
2023-04-15T20:02:27.039Z,9.90
2023-04-15T20:04:54.689Z,9.73
2023-04-15T20:07:22.196Z,9.70
2023-04-15T20:09:51.558Z,9.63
2023-04-15T20:12:49.773Z,9.66
2023-04-15T20:15:09.475Z,9.63
2023-04-15T20:17:37.582Z,9.57
2023-04-15T20:20:06.316Z,9.66
2023-04-15T20:22:34.443Z,9.62
2023-04-15T20:25:03.116Z,9.61
2023-04-15T20:27:31.965Z,9.57
2023-04-15T20:29:59.518Z,9.53
2023-04-15T20:32:28.274Z,9.53
2023-04-15T20:34:56.280Z,9.39
2023-04-15T20:37:23.774Z,9.45
2023-04-15T20:39:51.463Z,9.46
2023-04-15T20:42:20.757Z,9.48
2023-04-15T20:44:49.669Z,9.30
2023-04-15T20:47:17.331Z,9.22
2023-04-15T20:49:45.634Z,9.26
2023-04-15T20:52:13.155Z,9.27
2023-04-15T20:54:40.724Z,9.21
2023-04-15T20:57:08.315Z,9.18
2023-04-15T20:59:36.006Z,9.20
2023-04-15T21:02:04.996Z,9.18
2023-04-15T21:04:32.691Z,9.21
2023-04-15T21:07:00.277Z,9.19
2023-04-15T21:09:27.838Z,9.17
2023-04-15T21:12:00.552Z,9.19
2023-04-15T21:14:29.437Z,9.13
2023-04-15T21:16:57.912Z,9.08
2023-04-15T21:19:26.897Z,9.07
2023-04-15T21:21:54.405Z,9.06
2023-04-15T21:24:21.947Z,9.11
2023-04-15T21:26:49.434Z,9.13
2023-04-15T21:29:17.086Z,9.09
2023-04-15T21:31:44.901Z,9.11
2023-04-15T21:34:12.514Z,9.14
2023-04-15T21:36:41.388Z,9.10
2023-04-15T21:39:08.979Z,9.08
2023-04-15T21:41:37.498Z,9.10
2023-04-15T21:44:05.248Z,9.09
2023-04-15T21:46:35.493Z,9.13
2023-04-15T21:49:04.416Z,9.18
2023-04-15T21:51:32.547Z,9.20
2023-04-15T21:54:01.551Z,9.02
2023-04-15T21:56:29.400Z,9.09
2023-04-15T21:58:58.539Z,8.98
2023-04-15T22:01:26.509Z,8.92
2023-04-15T22:03:54.513Z,8.91
2023-04-15T22:06:22.518Z,8.82
2023-04-15T22:08:57.095Z,8.97
2023-04-15T22:11:30.828Z,8.94
2023-04-15T22:13:58.681Z,8.96
2023-04-15T22:16:26.733Z,8.96
2023-04-15T22:18:54.832Z,8.89
2023-04-15T22:21:22.394Z,8.92
2023-04-15T22:23:50.373Z,8.86
2023-04-15T22:26:17.913Z,8.95
2023-04-15T22:28:46.758Z,8.92
2023-04-15T22:31:14.824Z,8.86
2023-04-15T22:33:42.448Z,8.88
2023-04-15T22:36:09.974Z,8.85
2023-04-15T22:38:37.485Z,8.78
2023-04-15T22:41:05.084Z,8.82
2023-04-15T22:43:32.621Z,8.78
2023-04-15T22:46:02.103Z,8.74
2023-04-15T22:48:29.639Z,8.73
2023-04-15T22:50:57.224Z,8.67
2023-04-15T22:53:24.731Z,8.73
2023-04-15T22:55:53.786Z,8.69
2023-04-15T22:58:21.316Z,8.61
2023-04-15T23:00:49.428Z,8.63
2023-04-15T23:03:18.474Z,8.53
2023-04-15T23:05:46.595Z,8.57
2023-04-15T23:08:14.136Z,8.56
2023-04-15T23:10:41.973Z,8.50
2023-04-15T23:13:09.531Z,8.58
2023-04-15T23:15:37.019Z,8.55
2023-04-15T23:18:04.711Z,8.50
2023-04-15T23:20:33.792Z,8.47
2023-04-15T23:23:01.414Z,8.32
2023-04-15T23:25:29.078Z,8.34
2023-04-15T23:27:56.639Z,8.35
2023-04-15T23:30:24.221Z,8.35
2023-04-15T23:32:51.777Z,8.34
2023-04-15T23:35:19.484Z,8.26
2023-04-15T23:37:48.368Z,8.28
2023-04-15T23:40:16.250Z,8.30
2023-04-15T23:42:44.214Z,8.34
2023-04-15T23:45:12.563Z,8.25
2023-04-15T23:47:40.505Z,8.24
2023-04-15T23:50:09.390Z,8.31
2023-04-15T23:52:37.285Z,8.29
2023-04-15T23:55:07.117Z,8.28
2023-04-15T23:57:34.714Z,8.12
